Time;durP1;ratioP1;P1;durP2;ratioP2;P2;SDS_P1;SDS_P2;PMS_P1;PMS_P2;Temp;Humidity;BMP_temperature;BMP_pressure;BME280_temperature;BME280_humidity;BME280_pressure;Samples;Min_cycle;Max_cycle;Signal;HPM_P1;HPM_P2
2023/08/14 00:01:49;;;;;;;;;8.00;6.50;;;;;21.41;57.23;101119.69;4998763;28;45875;-46
2023/08/14 00:04:14;;;;;;;;;10.50;7.75;;;;;21.37;57.33;101113.03;4998409;28;45292;-45
2023/08/14 00:06:39;;;;;;;;;8.00;7.25;;;;;21.35;56.79;101108.84;4998675;28;45306;-44
2023/08/14 00:09:05;;;;;;;;;6.50;6.00;;;;;21.31;57.51;101097.56;4998811;28;45353;-44
2023/08/14 00:11:30;;;;;;;;;10.50;6.50;;;;;21.29;57.53;101096.97;4998358;28;46335;-47
2023/08/14 00:13:56;;;;;;;;;10.00;8.75;;;;;21.25;57.43;101093.00;4998223;28;45312;-46
2023/08/14 00:16:23;;;;;;;;;7.25;7.00;;;;;21.24;57.50;101106.72;4998576;28;45366;-49
2023/08/14 00:18:49;;;;;;;;;6.00;4.75;;;;;21.20;57.09;101106.31;4998409;28;45527;-47
2023/08/14 00:21:14;;;;;;;;;11.25;6.50;;;;;21.18;57.78;101090.28;4997890;28;47500;-45
2023/08/14 00:23:39;;;;;;;;;10.00;7.25;;;;;21.16;58.08;101080.72;4998305;28;45409;-46
2023/08/14 00:26:05;;;;;;;;;8.25;6.25;;;;;21.12;57.95;101085.72;4998341;28;45403;-44
2023/08/14 00:28:31;;;;;;;;;7.50;6.75;;;;;21.09;57.81;101072.59;4998629;28;45334;-48
2023/08/14 00:30:56;;;;;;;;;7.00;6.50;;;;;21.00;58.42;101067.63;4998117;28;45435;-48
2023/08/14 00:33:22;;;;;;;;;8.00;5.00;;;;;20.96;57.34;101067.19;4998296;28;45313;-45
2023/08/14 00:35:47;;;;;;;;;8.75;5.25;;;;;20.93;57.58;101068.44;4998176;28;45323;-48
2023/08/14 00:38:12;;;;;;;;;10.00;7.00;;;;;20.93;58.43;101097.34;4998249;28;45432;-47
2023/08/14 00:40:39;;;;;;;;;10.00;7.00;;;;;20.88;58.50;101078.22;4998037;28;47267;-48
2023/08/14 00:43:04;;;;;;;;;9.00;7.25;;;;;20.92;58.67;101074.06;4996116;28;45334;-48
2023/08/14 00:45:30;;;;;;;;;6.25;5.75;;;;;20.94;58.36;101063.84;4998207;28;45486;-47
2023/08/14 00:47:56;;;;;;;;;11.00;7.00;;;;;20.91;57.98;101075.09;4998297;28;45470;-46
2023/08/14 00:50:22;;;;;;;;;6.00;5.00;;;;;20.83;58.87;101068.00;4997861;28;46340;-45
2023/08/14 00:52:54;;;;;;;;;7.00;6.25;;;;;20.80;58.84;101057.59;4997689;28;45424;-46
2023/08/14 00:55:26;;;;;;;;;6.50;6.00;;;;;20.84;58.69;101064.25;4998362;28;45412;-45
2023/08/14 00:57:52;;;;;;;;;8.25;6.75;;;;;20.83;59.20;101057.19;4998309;28;45396;-48
2023/08/14 01:00:18;;;;;;;;;5.00;4.50;;;;;20.82;58.54;101070.94;4997666;28;46315;-44
2023/08/14 01:02:43;;;;;;;;;8.50;6.25;;;;;20.80;59.03;101059.47;4997689;28;45384;-45
2023/08/14 01:05:09;;;;;;;;;5.00;4.50;;;;;20.81;58.19;101069.25;4997651;28;45330;-44
2023/08/14 01:07:35;;;;;;;;;6.25;6.25;;;;;20.77;59.47;101058.00;4997828;28;45491;-48
2023/08/14 01:10:02;;;;;;;;;6.00;5.50;;;;;20.74;59.13;101057.63;4997690;28;45666;-45
2023/08/14 01:13:02;;;;;;;;;8.75;5.00;;;;;20.73;58.82;101064.91;4997594;28;45337;-47
2023/08/14 01:15:41;;;;;;;;;8.00;6.00;;;;;20.74;58.73;101063.84;4997826;28;45405;-46
2023/08/14 01:18:09;;;;;;;;;8.25;6.50;;;;;20.74;59.63;101060.31;4997906;28;45368;-46
2023/08/14 01:20:37;;;;;;;;;5.75;5.00;;;;;20.74;59.43;101049.50;4997397;28;46027;-46
2023/08/14 01:23:02;;;;;;;;;7.00;5.50;;;;;20.78;59.00;101053.47;4997162;28;45512;-46
2023/08/14 01:25:37;;;;;;;;;5.50;5.50;;;;;20.77;58.73;101057.19;4997511;28;45422;-48
2023/08/14 01:28:04;;;;;;;;;6.50;5.75;;;;;20.76;59.11;101053.66;4997609;28;45286;-46
2023/08/14 01:30:29;;;;;;;;;8.00;6.00;;;;;20.78;58.93;101054.28;4996797;28;47105;-46
2023/08/14 01:32:55;;;;;;;;;8.50;6.00;;;;;20.77;59.06;101062.59;4997283;28;45291;-47
2023/08/14 01:35:23;;;;;;;;;8.75;7.00;;;;;20.76;58.91;101060.94;4997266;28;45398;-45
2023/08/14 01:38:10;;;;;;;;;10.75;8.25;;;;;20.78;59.22;101051.59;4997490;28;45412;-46
2023/08/14 01:41:15;;;;;;;;;8.75;7.50;;;;;20.83;58.76;101050.97;4997100;28;47793;-47
2023/08/14 01:43:47;;;;;;;;;6.25;4.75;;;;;20.84;59.54;101048.03;4996858;28;45353;-46
2023/08/14 01:46:14;;;;;;;;;9.25;8.00;;;;;20.77;59.04;101036.38;4997146;28;45353;-46
2023/08/14 01:48:40;;;;;;;;;6.25;6.00;;;;;20.82;59.48;101046.59;4997076;28;45454;-45
2023/08/14 01:51:07;;;;;;;;;8.00;7.75;;;;;20.84;58.97;101049.91;4996712;28;45385;-48
2023/08/14 01:53:34;;;;;;;;;7.75;7.25;;;;;20.81;59.90;101056.56;4996461;28;45322;-45
2023/08/14 01:55:59;;;;;;;;;7.75;6.00;;;;;20.79;59.36;101057.81;4996823;28;45361;-45
2023/08/14 01:58:24;;;;;;;;;9.00;7.25;;;;;20.79;59.60;101055.94;4996751;28;45409;-43
2023/08/14 02:00:50;;;;;;;;;7.50;7.00;;;;;20.81;60.10;101053.03;4996699;28;48900;-47
2023/08/14 02:03:15;;;;;;;;;7.00;6.00;;;;;20.77;59.43;101038.25;4996527;28;51215;-45
2023/08/14 02:05:40;;;;;;;;;6.75;6.25;;;;;20.85;59.68;101048.88;4996705;28;45455;-47
2023/08/14 02:08:06;;;;;;;;;6.00;5.00;;;;;20.81;59.59;101039.50;4995323;28;45260;-47
2023/08/14 02:10:31;;;;;;;;;9.50;8.75;;;;;20.79;60.10;101037.00;4996760;28;46126;-44
2023/08/14 02:12:57;;;;;;;;;6.00;6.00;;;;;20.75;59.87;101029.53;4996454;28;45244;-45
2023/08/14 02:15:22;;;;;;;;;8.00;8.00;;;;;20.80;59.91;101037.84;4996730;28;45428;-47
2023/08/14 02:17:48;;;;;;;;;9.25;7.25;;;;;20.78;60.58;101031.81;4996822;28;45779;-47
2023/08/14 02:20:13;;;;;;;;;7.25;6.00;;;;;20.78;60.39;101026.41;4996185;28;47159;-50
2023/08/14 02:22:39;;;;;;;;;6.50;4.50;;;;;20.79;60.27;101037.00;4996372;28;45402;-47
2023/08/14 02:25:04;;;;;;;;;9.25;6.75;;;;;20.78;60.33;101037.25;4996387;28;45441;-46
2023/08/14 02:27:29;;;;;;;;;9.00;7.25;;;;;20.74;60.11;101031.41;4996507;28;45449;-43
2023/08/14 02:29:55;;;;;;;;;10.25;6.50;;;;;20.73;60.44;101040.56;4996231;28;46489;-45
2023/08/14 02:32:20;;;;;;;;;7.00;5.00;;;;;20.72;60.17;101028.06;4996370;28;45468;-49
2023/08/14 02:34:47;;;;;;;;;5.25;5.25;;;;;20.76;60.32;101021.19;4996354;28;45400;-49
2023/08/14 02:37:13;;;;;;;;;6.50;6.00;;;;;20.77;60.56;101017.44;4996568;28;45471;-48
2023/08/14 02:39:39;;;;;;;;;6.00;4.00;;;;;20.71;60.48;101006.66;4996062;28;46144;-47
2023/08/14 02:42:05;;;;;;;;;7.50;5.25;;;;;20.73;60.34;101018.06;4996052;28;45325;-48
2023/08/14 02:44:30;;;;;;;;;10.00;5.00;;;;;20.67;60.32;101022.44;4996186;28;45412;-43
2023/08/14 02:46:56;;;;;;;;;5.50;5.00;;;;;20.58;60.42;101004.75;4996548;28;45408;-48
2023/08/14 02:49:22;;;;;;;;;8.00;5.75;;;;;20.58;61.03;100993.94;4996164;28;47497;-47
2023/08/14 02:51:48;;;;;;;;;18.75;12.75;;;;;20.48;60.84;100980.84;4995735;28;45459;-48
2023/08/14 02:54:13;;;;;;;;;13.75;11.75;;;;;20.50;60.86;100992.28;4996032;28;45373;-47
2023/08/14 02:56:38;;;;;;;;;8.50;6.75;;;;;20.53;60.62;100996.44;4996152;28;45323;-46
2023/08/14 02:59:04;;;;;;;;;7.00;5.25;;;;;20.47;61.16;101000.75;4996062;28;45818;-46
2023/08/14 03:01:29;;;;;;;;;6.00;6.00;;;;;20.47;61.25;100999.94;4995763;28;45382;-45
2023/08/14 03:03:54;;;;;;;;;6.75;6.75;;;;;20.44;61.02;100987.69;4996078;28;45438;-46
2023/08/14 03:06:20;;;;;;;;;6.00;4.50;;;;;20.35;61.06;100978.06;4997867;28;45377;-44
2023/08/14 03:08:45;;;;;;;;;7.25;4.25;;;;;20.30;61.01;100978.69;4999210;28;45670;-48
2023/08/14 03:11:10;;;;;;;;;4.50;4.50;;;;;20.35;61.62;100986.19;4999441;28;45373;-45
2023/08/14 03:13:37;;;;;;;;;5.00;4.00;;;;;20.34;61.40;100993.47;4999235;28;45459;-46
2023/08/14 03:16:02;;;;;;;;;7.00;5.00;;;;;20.31;61.56;101001.13;4999550;28;45366;-48
2023/08/14 03:18:27;;;;;;;;;6.50;5.00;;;;;20.24;61.09;100992.22;4999055;28;46417;-49
2023/08/14 03:20:53;;;;;;;;;7.00;5.00;;;;;20.22;61.68;100999.66;4999098;28;45453;-46
2023/08/14 03:23:18;;;;;;;;;5.50;5.00;;;;;20.18;61.83;100997.41;4999285;28;45472;-46
2023/08/14 03:25:43;;;;;;;;;8.00;6.25;;;;;20.19;61.47;100998.22;4999301;28;45271;-46
2023/08/14 03:28:09;;;;;;;;;5.75;4.00;;;;;20.17;61.17;100984.91;4998988;28;50125;-47
2023/08/14 03:30:40;;;;;;;;;5.00;5.00;;;;;20.18;61.72;100978.47;4998814;28;54109;-46
2023/08/14 03:33:05;;;;;;;;;9.00;6.50;;;;;20.18;62.23;100981.19;4998903;28;45309;-47
2023/08/14 03:35:31;;;;;;;;;7.50;7.00;;;;;20.18;61.79;100983.03;4999134;28;45318;-46
2023/08/14 03:37:56;;;;;;;;;9.25;6.00;;;;;20.18;61.46;100997.41;4998940;28;45408;-47
2023/08/14 03:40:21;;;;;;;;;4.50;4.50;;;;;20.15;61.43;100995.09;4999253;28;45334;-46
2023/08/14 03:42:47;;;;;;;;;4.50;4.50;;;;;20.11;61.57;100993.81;4999078;28;45354;-46
2023/08/14 03:45:12;;;;;;;;;9.50;6.25;;;;;20.11;62.09;100991.13;4999127;28;45584;-47
2023/08/14 03:47:38;;;;;;;;;9.50;6.00;;;;;20.06;61.82;100982.81;4998920;28;46132;-45
2023/08/14 03:50:04;;;;;;;;;9.00;6.75;;;;;20.10;61.73;100985.91;4998883;28;45314;-45
2023/08/14 03:52:29;;;;;;;;;7.25;5.50;;;;;20.11;62.26;100977.63;4998667;28;45435;-44
2023/08/14 03:54:55;;;;;;;;;8.50;5.00;;;;;20.11;62.22;100976.78;4999150;28;45360;-47
2023/08/14 03:57:20;;;;;;;;;7.50;5.00;;;;;20.08;61.66;100969.09;4998626;28;47195;-44
2023/08/14 03:59:46;;;;;;;;;4.25;4.25;;;;;20.11;61.85;100969.53;4998155;28;45158;-44
2023/08/14 04:02:12;;;;;;;;;7.25;4.75;;;;;20.14;62.28;100970.97;4997469;28;45205;-46
2023/08/14 04:04:37;;;;;;;;;6.25;5.50;;;;;20.10;62.35;100965.16;4998849;28;45351;-46
2023/08/14 04:07:02;;;;;;;;;8.50;7.50;;;;;20.09;62.07;100966.19;4998308;28;46203;-51
2023/08/14 04:09:28;;;;;;;;;4.25;4.25;;;;;20.08;61.92;100975.31;4998531;28;45455;-47
2023/08/14 04:11:53;;;;;;;;;13.67;13.67;;;;;20.10;61.84;100980.50;4998809;28;45271;-46
2023/08/14 04:14:18;;;;;;;;;30.67;26.00;;;;;20.05;62.25;100980.28;4998574;28;45290;-48
2023/08/14 04:16:44;;;;;;;;;20.00;18.00;;;;;20.07;61.96;100989.88;4998296;28;45383;-46
2023/08/14 04:19:18;;;;;;;;;9.50;5.25;;;;;20.05;61.77;100994.63;4998483;28;45558;-46
2023/08/14 04:21:44;;;;;;;;;6.50;4.50;;;;;20.02;62.15;100992.34;4998315;28;45504;-49
2023/08/14 04:24:10;;;;;;;;;4.75;4.00;;;;;20.02;62.45;100986.13;4998509;28;45510;-46
2023/08/14 04:26:38;;;;;;;;;7.00;5.25;;;;;20.02;62.45;100972.63;4998237;28;46076;-46
2023/08/14 04:29:07;;;;;;;;;7.00;5.50;;;;;19.97;62.38;100967.81;4998321;28;45518;-45
2023/08/14 04:31:36;;;;;;;;;7.75;7.50;;;;;19.95;62.66;100975.28;4998550;28;45419;-44
2023/08/14 04:34:02;;;;;;;;;10.50;6.50;;;;;19.91;62.28;100974.84;4998414;28;45277;-44
2023/08/14 04:36:30;;;;;;;;;5.50;5.50;;;;;19.83;62.50;100980.44;4997896;28;46275;-42
2023/08/14 04:38:55;;;;;;;;;7.25;6.50;;;;;19.79;62.63;100981.88;4997941;28;45343;-46
2023/08/14 04:41:21;;;;;;;;;9.00;5.50;;;;;19.78;62.82;100973.97;4998190;28;45337;-45
2023/08/14 04:43:46;;;;;;;;;6.50;6.50;;;;;19.75;62.82;100968.97;4998303;28;45338;-45
2023/08/14 04:46:11;;;;;;;;;10.50;4.75;;;;;19.69;62.47;100971.44;4997912;28;45374;-45
2023/08/14 04:48:38;;;;;;;;;6.00;5.75;;;;;19.74;62.52;100975.41;4998193;28;45450;-46
2023/08/14 04:51:04;;;;;;;;;6.00;5.25;;;;;19.76;62.72;100984.13;4998151;28;45246;-45
2023/08/14 04:53:30;;;;;;;;;6.25;6.25;;;;;19.68;62.87;100967.09;4998105;28;45365;-44
2023/08/14 04:55:55;;;;;;;;;6.00;6.00;;;;;19.72;63.00;100967.53;4997961;28;46053;-45
2023/08/14 04:58:21;;;;;;;;;7.00;6.00;;;;;19.71;63.25;100971.25;4996855;28;45382;-45
2023/08/14 05:00:46;;;;;;;;;10.25;6.00;;;;;19.73;62.95;100971.06;4998150;28;45349;-44
2023/08/14 05:03:11;;;;;;;;;8.75;6.00;;;;;19.73;63.19;100966.50;4998073;28;45418;-48
2023/08/14 05:05:37;;;;;;;;;10.25;6.25;;;;;19.75;63.22;100975.19;4997604;28;50014;-45
2023/08/14 05:08:02;;;;;;;;;6.75;5.50;;;;;19.78;62.60;100976.69;4997457;28;45360;-46
2023/08/14 05:10:28;;;;;;;;;8.75;5.75;;;;;19.77;62.91;100980.41;4997847;28;45472;-47
2023/08/14 05:12:55;;;;;;;;;6.75;4.75;;;;;19.77;62.64;100970.44;4998161;28;45464;-45
2023/08/14 05:15:21;;;;;;;;;7.00;4.50;;;;;19.80;62.89;100974.59;4997686;28;45373;-46
2023/08/14 05:17:46;;;;;;;;;5.50;5.00;;;;;19.82;63.24;100977.94;4997612;28;45353;-43
2023/08/14 05:20:12;;;;;;;;;6.00;6.00;;;;;19.81;63.27;100977.13;4997427;28;45897;-48
2023/08/14 05:22:38;;;;;;;;;6.50;6.25;;;;;19.83;62.99;100995.78;4997412;28;45501;-45
2023/08/14 05:25:03;;;;;;;;;6.00;5.00;;;;;19.82;62.71;100986.88;4997168;28;46565;-46
2023/08/14 05:27:29;;;;;;;;;4.50;4.25;;;;;19.86;62.55;100981.91;4997562;28;45340;-45
2023/08/14 05:29:54;;;;;;;;;3.50;3.50;;;;;19.92;62.37;100978.38;4996830;28;45349;-45
2023/08/14 05:32:19;;;;;;;;;5.75;5.75;;;;;19.93;62.02;100980.91;4997383;28;45400;-44
2023/08/14 05:34:45;;;;;;;;;4.00;4.00;;;;;19.98;62.14;100982.16;4997237;28;45961;-46
2023/08/14 05:37:10;;;;;;;;;3.00;3.00;;;;;19.97;62.16;100975.91;4996923;28;45548;-45
2023/08/14 05:39:35;;;;;;;;;9.75;4.75;;;;;20.02;62.07;100972.63;4997416;28;45401;-44
2023/08/14 05:42:01;;;;;;;;;4.50;4.50;;;;;20.01;62.24;100971.75;4997227;28;45445;-48
2023/08/14 05:44:26;;;;;;;;;4.00;4.00;;;;;19.97;61.89;100962.41;4997066;28;46168;-45
2023/08/14 05:46:51;;;;;;;;;6.00;4.25;;;;;20.03;61.76;100971.56;4997161;28;45382;-45
2023/08/14 05:49:16;;;;;;;;;6.00;6.00;;;;;20.01;61.61;100960.13;4997033;28;45493;-46
2023/08/14 05:51:43;;;;;;;;;6.00;6.00;;;;;20.00;62.30;100959.31;4997289;28;45350;-47
2023/08/14 05:54:08;;;;;;;;;6.00;6.00;;;;;19.97;61.93;100946.19;4996627;28;46508;-47
2023/08/14 05:56:34;;;;;;;;;3.75;3.75;;;;;19.98;61.63;100952.47;4997035;28;45866;-46
2023/08/14 05:58:59;;;;;;;;;9.00;5.75;;;;;19.91;61.95;100953.25;4996885;28;45440;-45
2023/08/14 06:01:24;;;;;;;;;7.00;4.25;;;;;19.90;61.88;100951.59;4995821;28;45641;-46
2023/08/14 06:03:50;;;;;;;;;5.75;5.75;;;;;19.89;61.83;100957.22;4996586;28;47064;-46
2023/08/14 06:06:15;;;;;;;;;5.00;5.00;;;;;19.88;61.75;100952.81;4996640;28;45333;-49
2023/08/14 06:08:41;;;;;;;;;5.75;5.75;;;;;19.87;61.94;100954.69;4996763;28;45318;-48
2023/08/14 06:11:06;;;;;;;;;17.00;15.00;;;;;19.89;62.08;100958.03;4996900;28;45384;-47
2023/08/14 06:13:32;;;;;;;;;66.00;49.00;;;;;19.92;61.47;100957.59;4996233;28;46592;-46
2023/08/14 06:15:57;;;;;;;;;11.67;10.67;;;;;19.93;61.46;100950.34;4996507;28;45322;-48
2023/08/14 06:18:23;;;;;;;;;4.75;4.50;;;;;20.02;61.18;100956.41;4996838;28;45402;-48
2023/08/14 06:20:50;;;;;;;;;7.00;4.00;;;;;20.07;61.24;100968.25;4996541;28;45539;-46
2023/08/14 06:23:16;;;;;;;;;5.50;4.50;;;;;20.04;61.23;100959.72;4994732;28;47066;-47
2023/08/14 06:25:42;;;;;;;;;6.00;4.75;;;;;20.10;60.90;100958.91;4996276;28;45356;-43
2023/08/14 06:28:07;;;;;;;;;5.25;3.50;;;;;20.12;61.64;100967.66;4996547;28;45381;-44
2023/08/14 06:30:32;;;;;;;;;7.00;6.00;;;;;20.13;60.75;100966.59;4996445;28;45377;-46
2023/08/14 06:32:58;;;;;;;;;6.00;4.50;;;;;20.17;60.87;100962.47;4996061;28;47074;-46
2023/08/14 06:35:23;;;;;;;;;3.00;3.00;;;;;20.17;61.13;100954.34;4996630;28;45417;-48
2023/08/14 06:37:49;;;;;;;;;6.75;6.00;;;;;20.33;60.73;100963.97;4996135;28;45819;-47
2023/08/14 06:40:14;;;;;;;;;7.25;6.25;;;;;20.25;60.54;100935.25;4995549;28;45461;-51
2023/08/14 06:42:40;;;;;;;;;8.00;6.00;;;;;20.49;60.77;100958.19;4995935;28;45561;-46
2023/08/14 06:45:06;;;;;;;;;5.75;5.25;;;;;20.48;60.25;100956.53;4996428;28;45389;-46
2023/08/14 06:47:31;;;;;;;;;9.75;5.75;;;;;20.64;60.33;100964.22;4994953;28;45736;-48
2023/08/14 06:49:56;;;;;;;;;6.00;5.75;;;;;20.76;60.04;100958.19;4996157;28;45404;-47
2023/08/14 06:52:22;;;;;;;;;7.25;4.50;;;;;20.86;59.04;100956.75;4996178;28;45634;-47
2023/08/14 06:54:47;;;;;;;;;5.25;5.00;;;;;20.99;58.83;100957.78;4995993;28;45354;-48
2023/08/14 06:57:12;;;;;;;;;7.00;5.75;;;;;21.10;58.25;100949.81;4996270;28;45335;-45
2023/08/14 06:59:38;;;;;;;;;5.00;5.00;;;;;21.30;58.10;100959.78;4996214;28;45458;-44
2023/08/14 07:02:03;;;;;;;;;6.00;4.75;;;;;21.46;57.40;100962.06;4995861;28;49613;-44
2023/08/14 07:04:28;;;;;;;;;5.25;4.25;;;;;21.72;57.19;100963.00;4995864;28;45318;-47
2023/08/14 07:06:54;;;;;;;;;8.75;5.50;;;;;22.31;56.05;100962.72;4996107;28;45568;-46
2023/08/14 07:09:19;;;;;;;;;8.75;4.75;;;;;23.44;53.39;100961.75;4996422;28;45441;-48
2023/08/14 07:11:45;;;;;;;;;5.25;4.50;;;;;24.65;49.78;100962.63;4995577;28;46927;-45
2023/08/14 07:14:10;;;;;;;;;4.50;4.25;;;;;25.67;47.59;100964.13;4995661;28;45396;-44
2023/08/14 07:16:36;;;;;;;;;10.50;5.25;;;;;26.30;45.76;100953.09;4995735;28;45432;-45
2023/08/14 07:19:01;;;;;;;;;4.00;3.00;;;;;26.72;44.59;100951.91;4995946;28;45397;-49
2023/08/14 07:21:27;;;;;;;;;3.50;2.75;;;;;27.31;43.28;100957.72;4995611;28;46074;-47
2023/08/14 07:23:52;;;;;;;;;2.50;2.50;;;;;27.65;42.40;100957.59;4994459;28;45351;-45
2023/08/14 07:26:18;;;;;;;;;3.00;3.00;;;;;27.92;41.68;100957.66;4995694;28;45457;-48
2023/08/14 07:28:43;;;;;;;;;2.50;2.50;;;;;28.11;41.46;100953.50;4995981;28;45377;-45
2023/08/14 07:31:09;;;;;;;;;5.00;2.00;;;;;28.25;41.61;100967.56;4995480;28;47251;-48
2023/08/14 07:33:34;;;;;;;;;3.00;3.00;;;;;28.39;40.17;100970.75;4995631;28;45488;-46
2023/08/14 07:36:00;;;;;;;;;3.00;3.00;;;;;28.56;40.68;100963.22;4994264;28;45233;-45
2023/08/14 07:38:26;;;;;;;;;3.20;3.20;;;;;28.38;40.56;100966.34;4995813;28;45409;-45
2023/08/14 07:40:52;;;;;;;;;6.00;3.00;;;;;28.27;40.50;100965.41;4995663;28;45866;-46
2023/08/14 07:43:18;;;;;;;;;7.20;4.00;;;;;27.83;42.02;100973.69;4995518;28;45329;-47
2023/08/14 07:45:43;;;;;;;;;7.00;4.00;;;;;27.32;42.29;100965.66;4995729;28;45398;-45
2023/08/14 07:48:09;;;;;;;;;2.00;2.00;;;;;27.15;42.07;100974.97;4995742;28;45449;-47
2023/08/14 07:50:34;;;;;;;;;6.00;4.25;;;;;27.36;42.76;100976.91;4995153;28;46955;-46
2023/08/14 07:53:00;;;;;;;;;4.75;3.00;;;;;27.44;41.93;100965.53;4997372;28;45465;-44
2023/08/14 07:55:25;;;;;;;;;4.00;4.00;;;;;27.49;42.31;100959.31;4997722;28;45396;-47
2023/08/14 07:57:50;;;;;;;;;4.00;3.00;;;;;27.70;41.89;100954.94;4999234;28;45474;-48
2023/08/14 08:00:16;;;;;;;;;5.25;4.00;;;;;28.98;39.78;100967.94;4998693;28;46337;-44
2023/08/14 08:02:42;;;;;;;;;5.25;4.00;;;;;30.54;37.17;100946.03;4998603;28;45322;-44
2023/08/14 08:05:08;;;;;;;;;8.60;5.60;;;;;29.80;37.89;100961.81;4998971;28;45413;-44
2023/08/14 08:07:33;;;;;;;;;6.75;3.25;;;;;29.23;39.10;100962.63;4997301;28;45601;-46
2023/08/14 08:09:59;;;;;;;;;6.25;5.00;;;;;29.37;38.74;100957.50;4998605;28;45389;-47
2023/08/14 08:12:24;;;;;;;;;5.25;3.25;;;;;31.06;36.75;100948.47;4998548;28;45445;-46
2023/08/14 08:14:49;;;;;;;;;3.50;2.50;;;;;31.94;36.31;100952.56;4998583;28;45525;-46
2023/08/14 08:17:16;;;;;;;;;6.50;3.00;;;;;32.86;33.52;100951.81;4998744;28;45322;-43
2023/08/14 08:19:42;;;;;;;;;6.40;4.80;;;;;32.99;33.80;100948.41;4998245;28;46369;-46
2023/08/14 08:22:07;;;;;;;;;6.75;5.75;;;;;32.35;34.07;100949.50;4998120;28;45380;-46
2023/08/14 08:24:33;;;;;;;;;7.00;4.75;;;;;31.48;34.76;100940.94;4997143;28;45419;-42
2023/08/14 08:26:58;;;;;;;;;3.25;2.25;;;;;30.71;35.78;100943.81;4998710;28;45455;-43
2023/08/14 08:29:23;;;;;;;;;6.75;3.00;;;;;29.98;36.99;100945.94;4997911;28;54922;-45
2023/08/14 08:31:49;;;;;;;;;5.00;5.00;;;;;29.88;37.57;100945.94;4998166;28;45433;-44
2023/08/14 08:34:14;;;;;;;;;7.00;4.00;;;;;31.48;35.30;100939.00;4998224;28;45428;-45
2023/08/14 08:36:39;;;;;;;;;6.25;3.00;;;;;31.62;35.58;100946.66;4998682;28;45427;-45
2023/08/14 08:39:04;;;;;;;;;7.00;4.00;;;;;31.12;35.59;100942.94;4997833;28;46757;-45
2023/08/14 08:41:32;;;;;;;;;4.00;4.00;;;;;30.44;36.98;100952.34;4998217;28;45374;-45
2023/08/14 08:44:15;;;;;;;;;5.00;4.20;;;;;29.65;38.26;100941.75;4998028;28;45422;-46
2023/08/14 08:47:04;;;;;;;;;4.00;4.00;;;;;29.57;38.40;100935.69;4998332;28;45420;-43
2023/08/14 08:49:29;;;;;;;;;4.20;3.00;;;;;29.86;37.91;100937.97;4997695;28;47708;-43
2023/08/14 08:51:56;;;;;;;;;6.00;3.75;;;;;29.60;38.07;100939.00;4998020;28;45245;-47
2023/08/14 08:54:22;;;;;;;;;5.60;3.00;;;;;29.61;37.40;100935.97;4997813;28;45314;-46
2023/08/14 08:56:48;;;;;;;;;5.50;4.75;;;;;30.27;37.50;100935.31;4998063;28;45391;-45
2023/08/14 08:59:15;;;;;;;;;7.00;2.25;;;;;32.44;34.62;100934.03;4997774;28;45388;-45
2023/08/14 09:01:41;;;;;;;;;4.20;1.80;;;;;34.28;31.10;100931.03;4997436;28;45535;-45
2023/08/14 09:04:06;;;;;;;;;5.00;3.20;;;;;36.08;28.92;100930.00;4996665;28;45467;-49
2023/08/14 09:06:32;;;;;;;;;3.25;3.00;;;;;38.18;26.02;100925.78;4996195;28;45822;-48
2023/08/14 09:08:57;;;;;;;;;2.75;2.50;;;;;40.19;24.45;100916.09;4997474;28;46013;-45
2023/08/14 09:11:24;;;;;;;;;5.25;4.00;;;;;40.71;25.14;100918.38;4996385;28;45778;-45
2023/08/14 09:13:50;;;;;;;;;14.20;7.80;;;;;41.49;24.32;100910.94;4996333;28;45452;-42
2023/08/14 09:16:15;;;;;;;;;4.75;1.50;;;;;42.55;22.26;100906.78;4998057;28;45397;-44
2023/08/14 09:18:44;;;;;;;;;4.25;4.25;;;;;43.68;21.25;100907.94;4997193;28;46598;-45
2023/08/14 09:21:10;;;;;;;;;2.00;2.00;;;;;44.64;20.48;100897.03;4997228;28;45328;-47
2023/08/14 09:23:38;;;;;;;;;3.20;2.80;;;;;45.03;19.22;100914.53;4997521;28;45513;-46
2023/08/14 09:26:04;;;;;;;;;5.80;3.60;;;;;44.74;20.14;100894.38;4997638;28;45424;-47
2023/08/14 09:28:30;;;;;;;;;3.00;2.00;;;;;45.36;18.85;100896.16;4996981;28;46581;-45
2023/08/14 09:31:09;;;;;;;;;1.80;1.80;;;;;45.87;19.24;100899.25;4997498;28;45413;-46
2023/08/14 09:33:40;;;;;;;;;2.80;2.20;;;;;46.65;20.45;100901.28;4997370;28;45524;-44
2023/08/14 09:36:06;;;;;;;;;2.80;2.20;;;;;47.14;20.31;100908.50;4997518;28;45434;-44
2023/08/14 09:38:31;;;;;;;;;3.00;3.00;;;;;47.61;19.25;100909.59;4997193;28;46969;-45
2023/08/14 09:41:00;;;;;;;;;1.75;1.75;;;;;47.55;18.68;100909.16;4997332;28;45338;-46
2023/08/14 09:43:28;;;;;;;;;2.60;2.60;;;;;46.76;19.21;100908.63;4997374;28;45581;-47
2023/08/14 09:45:56;;;;;;;;;4.20;2.60;;;;;45.30;20.72;100898.47;4997510;28;45390;-50
2023/08/14 09:48:23;;;;;;;;;5.60;2.80;;;;;44.05;20.36;100908.34;4997142;28;46413;-44
2023/08/14 09:50:52;;;;;;;;;4.60;3.00;;;;;42.80;21.78;100896.28;4997078;28;45520;-45
2023/08/14 09:53:18;;;;;;;;;2.80;2.20;;;;;41.29;23.14;100899.53;4997168;28;45277;-46
2023/08/14 09:55:44;;;;;;;;;2.80;2.80;;;;;39.60;25.65;100897.56;4997246;28;45413;-45
2023/08/14 09:58:10;;;;;;;;;3.50;2.00;;;;;38.07;26.65;100907.78;4996966;28;46495;-44
2023/08/14 10:00:38;;;;;;;;;4.40;3.20;;;;;36.97;28.06;100904.97;4997021;28;45396;-44
2023/08/14 10:03:07;;;;;;;;;3.00;2.40;;;;;36.30;28.89;100899.53;4997120;28;45301;-46
2023/08/14 10:05:33;;;;;;;;;3.80;3.00;;;;;35.85;29.59;100910.56;4997230;28;45353;-44
2023/08/14 10:08:00;;;;;;;;;4.20;3.20;;;;;36.03;29.66;100894.94;4996538;28;46567;-46
2023/08/14 10:10:30;;;;;;;;;3.80;3.80;;;;;37.37;28.12;100893.81;4996794;28;45349;-44
2023/08/14 10:13:04;;;;;;;;;4.60;3.00;;;;;38.61;26.93;100885.97;4996875;28;45388;-48
2023/08/14 10:15:34;;;;;;;;;2.40;2.00;;;;;40.50;24.88;100876.59;4996716;28;45385;-46
2023/08/14 10:18:07;;;;;;;;;2.60;1.00;;;;;41.82;23.45;100874.44;4996509;28;46482;-47
2023/08/14 10:20:35;;;;;;;;;3.20;2.80;;;;;43.14;22.61;100871.50;4996745;28;45362;-47
2023/08/14 10:23:02;;;;;;;;;6.20;4.60;;;;;44.68;20.52;100867.84;4996407;28;45844;-44
2023/08/14 10:25:28;;;;;;;;;7.40;2.20;;;;;45.87;20.75;100873.97;4997072;28;45396;-44
2023/08/14 10:27:53;;;;;;;;;5.00;3.60;;;;;46.55;19.18;100873.84;4996304;28;46190;-43
2023/08/14 10:30:23;;;;;;;;;3.00;3.00;;;;;47.32;18.52;100872.00;4996410;28;45722;-44
2023/08/14 10:32:49;;;;;;;;;4.20;3.80;;;;;47.99;18.80;100863.00;4996209;28;45374;-47
2023/08/14 10:35:15;;;;;;;;;2.40;2.00;;;;;48.46;17.27;100846.97;4996668;28;45483;-46
2023/08/14 10:37:46;;;;;;;;;4.00;4.00;;;;;49.45;16.60;100862.94;4996233;28;46953;-49
2023/08/14 10:40:21;;;;;;;;;3.80;2.80;;;;;50.32;16.77;100861.28;4996265;28;45223;-46
2023/08/14 10:42:50;;;;;;;;;6.80;3.60;;;;;50.76;16.42;100851.16;4996382;28;45392;-46
2023/08/14 10:45:18;;;;;;;;;2.40;2.40;;;;;51.01;16.08;100850.94;4996698;28;45333;-48
2023/08/14 10:47:44;;;;;;;;;2.00;1.20;;;;;51.06;15.02;100852.50;4996041;28;45765;-45
2023/08/14 10:50:18;;;;;;;;;2.20;2.20;;;;;51.15;15.99;100842.25;4996081;28;45503;-47
2023/08/14 10:52:48;;;;;;;;;5.00;4.20;;;;;51.57;15.92;100836.50;4996180;28;45559;-47
2023/08/14 10:55:23;;;;;;;;;2.80;2.80;;;;;51.59;17.95;100840.53;4996374;28;45333;-43
2023/08/14 10:57:49;;;;;;;;;3.00;3.00;;;;;51.46;15.72;100841.47;4995987;28;45331;-45
2023/08/14 11:00:23;;;;;;;;;2.00;2.00;;;;;51.44;15.28;100843.94;4995974;28;45505;-43
2023/08/14 11:02:50;;;;;;;;;4.80;2.00;;;;;51.12;14.68;100842.28;4996256;28;45294;-49
2023/08/14 11:05:17;;;;;;;;;2.75;1.00;;;;;50.89;15.37;100851.47;4996360;28;45337;-45
2023/08/14 11:07:56;;;;;;;;;1.60;1.60;;;;;50.85;15.04;100847.84;4995882;28;45768;-47
2023/08/14 11:10:24;;;;;;;;;6.00;4.20;;;;;51.08;15.73;100845.19;4995641;28;45574;-47
2023/08/14 11:12:50;;;;;;;;;1.00;1.00;;;;;51.52;15.03;100843.41;4996030;28;45407;-47
2023/08/14 11:15:16;;;;;;;;;2.20;1.80;;;;;51.52;14.81;100836.94;4996149;28;45434;-47
2023/08/14 11:17:41;;;;;;;;;2.00;1.25;;;;;51.52;15.25;100839.78;4995773;28;46066;-48
2023/08/14 11:20:10;;;;;;;;;2.50;1.25;;;;;51.58;14.15;100832.44;4996207;28;45448;-45
2023/08/14 11:22:36;;;;;;;;;3.40;2.20;;;;;51.38;14.49;100827.41;4995688;28;45768;-48